메인 페이지
METAR-TAF:

METAR-TAF

공항 :

미네랄니예보디 공항

미네랄니예보디, 러시아

위도: 44-14N, 경도: 043-04E, 고도: 314m

현재 날씨관측

예보는 45분 전, 19:30시(UTC)에 발표되었습니다.
남남서4kt
온도 10°C
습도 66%
기압 1020 hPa
시정 10km 이상

METAR: URMM 251930Z 21002MPS 9999 NSC 10/04 Q1020 R30/090070 NOSIG RMK QFE736/0982

시각: 00:15 (20:15 UTC)

예보

예보는 3 시간 15분 전, 17:00시(UTC)에 발표되었습니다.
예보 대상 시간: 25일 18시부터 26일 18시까지 (UTC)
6kt, 순간 최대 풍속 19kt
시정 10km 이상
고도 3000ft 상공 구름 많음
일시적
25일 18시부터 26일 03시까지 (UTC)
여러 방향의 바람 2kt
전환 중
26일 03시부터 26일 05시까지 (UTC)
6kt, 순간 최대 풍속 19kt

TAF: URMM 251700Z 2518/2618 27003G10MPS 9999 BKN030 TX22/2612Z TN05/2603Z TEMPO 2518/2603 VRB01MPS BECMG 2603/2605 10003G10MPS

4,000개 이상의 공항 관측 자료 및 예보 (METAR 및 TAF 보고).

지도상에서 검색 가능한 기상관측소가 노란 점과 빨간 점으로 표시되어 있습니다.

기상관측소 명을 보려면 표시 위로 마우스를 이동하세요.

날씨 관측과 예보를 보려면 클릭하세요.

지도 변경 : 확대하려면 엑스 표시가 있는 녹색 버튼, 축소하려면 빼기 표시가 있는 녹색 버튼, 다음 페이지의 지도를 보려면 녹색 화살표를 클릭하세요.


METAR-TAF: